Time,TemperatureF,DewpointF,PressureIn,WindDirection,WindDirectionDegrees,WindSpeedMPH,WindSpeedGustMPH,Humidity,HourlyPrecipIn,Conditions,Clouds,dailyrainin,SoftwareType,DateUTC
2013-04-10 14:32:00,70.0,48.0,29.90,SE,130,13.0,-999.0,46,0.00,,,-99.99,,2013-04-10 18:32:00,
2013-04-10 14:41:00,70.0,48.0,29.90,SE,130,16.0,-999.0,46,0.00,,,-99.99,,2013-04-10 18:41:00,
2013-04-10 14:52:00,70.0,48.0,29.90,ESE,120,9.0,-999.0,46,0.00,,,-99.99,,2013-04-10 18:52:00,
2013-04-10 15:01:00,70.0,48.0,29.90,ESE,120,9.0,-999.0,46,0.00,,,-99.99,,2013-04-10 19:01:00,
2013-04-10 15:31:00,66.0,48.0,29.90,ESE,110,10.0,-999.0,52,0.00,,,-99.99,,2013-04-10 19:31:00,
2013-04-10 15:41:00,66.0,48.0,29.90,ESE,120,10.0,-999.0,52,0.00,,,-99.99,,2013-04-10 19:41:00,
2013-04-10 15:51:00,66.0,48.0,29.88,ESE,120,13.0,18.0,52,0.00,,,-99.99,,2013-04-10 19:51:00,
2013-04-10 16:01:00,66.0,48.0,29.88,ESE,120,13.0,18.0,52,0.00,,,-99.99,,2013-04-10 20:01:00,
2013-04-10 16:11:00,66.0,48.0,29.88,SE,140,12.0,17.0,52,0.00,,,-99.99,,2013-04-10 20:11:00,
2013-04-10 16:31:00,66.0,48.0,29.87,ESE,120,12.0,18.0,52,0.00,,,-99.99,,2013-04-10 20:31:00,
2013-04-10 16:41:00,64.0,48.0,29.87,ESE,120,13.0,18.0,55,0.00,,,-99.99,,2013-04-10 20:41:00,
2013-04-10 16:51:00,64.0,48.0,29.88,ESE,120,10.0,16.0,55,0.00,,,-99.99,,2013-04-10 20:51:00,
2013-04-10 17:01:00,64.0,48.0,29.88,ESE,120,10.0,16.0,55,0.00,,,-99.99,,2013-04-10 21:01:00,
2013-04-10 17:11:00,63.0,48.0,29.88,SE,130,10.0,17.0,59,0.00,,,-99.99,,2013-04-10 21:11:00,
2013-04-10 17:21:00,63.0,48.0,29.88,SE,130,10.0,16.0,59,0.00,,,-99.99,,2013-04-10 21:21:00,
2013-04-10 17:32:00,61.0,46.0,29.87,ESE,120,9.0,16.0,59,0.00,,,-99.99,,2013-04-10 21:32:00,
2013-04-10 17:42:00,61.0,46.0,29.87,SE,130,13.0,16.0,59,0.00,,,-99.99,,2013-04-10 21:42:00,
2013-04-10 17:52:00,59.0,46.0,29.87,ESE,120,13.0,16.0,62,0.00,,,-99.99,,2013-04-10 21:52:00,
2013-04-10 18:02:00,59.0,46.0,29.87,ESE,120,13.0,16.0,62,0.00,,,-99.99,,2013-04-10 22:02:00,
2013-04-10 18:12:00,57.0,46.0,29.87,ESE,110,6.0,-999.0,67,0.00,,,-99.99,,2013-04-10 22:12:00,
2013-04-10 18:22:00,57.0,48.0,29.84,ESE,110,9.0,-999.0,71,0.00,,,-99.99,,2013-04-10 22:22:00,
2013-04-10 18:32:00,57.0,48.0,29.85,ESE,120,7.0,-999.0,71,0.00,,,-99.99,,2013-04-10 22:32:00,
2013-04-10 18:42:00,57.0,48.0,29.84,ESE,120,6.0,-999.0,71,0.00,,,-99.99,,2013-04-10 22:42:00,
2013-04-10 18:52:00,57.0,48.0,29.84,ESE,110,6.0,-999.0,71,0.00,,,-99.99,,2013-04-10 22:52:00,
2013-04-10 19:02:00,57.0,48.0,29.84,ESE,110,6.0,-999.0,71,0.00,,,-99.99,,2013-04-10 23:02:00,
2013-04-10 19:11:00,57.0,48.0,29.87,NNW,340,13.0,24.0,71,0.00,,,-99.99,,2013-04-10 23:11:00,
2013-04-10 19:21:00,61.0,48.0,29.94,WNW,290,7.0,18.0,63,0.00,,,-99.99,,2013-04-10 23:21:00,
2013-04-10 19:32:00,63.0,50.0,29.92,NE,40,6.0,11.0,63,0.00,,,-99.99,,2013-04-10 23:32:00,
2013-04-10 19:41:00,63.0,54.0,29.91,ENE,70,9.0,11.0,72,0.00,,,-99.99,,2013-04-10 23:41:00,
2013-04-10 19:52:00,61.0,54.0,29.87,East,100,9.0,-999.0,77,0.04,,,-99.99,,2013-04-10 23:52:00,
2013-04-10 20:21:00,61.0,54.0,29.82,SE,130,12.0,-999.0,77,0.06,,,-99.99,,2013-04-11 00:21:00,
2013-04-10 20:31:00,59.0,54.0,29.85,SE,140,10.0,-999.0,82,0.00,,,-99.99,,2013-04-11 00:31:00,
2013-04-10 20:41:00,59.0,54.0,29.81,ESE,120,9.0,-999.0,82,0.00,,,-99.99,,2013-04-11 00:41:00,
2013-04-10 20:51:00,57.0,54.0,29.83,SE,140,6.0,-999.0,87,0.01,,,-99.99,,2013-04-11 00:51:00,
2013-04-10 21:01:00,57.0,54.0,29.83,SE,140,6.0,-999.0,87,0.01,,,-99.99,,2013-04-11 01:01:00,
2013-04-10 21:11:00,57.0,54.0,29.86,SE,140,8.0,-999.0,87,0.01,,,-99.99,,2013-04-11 01:11:00,
2013-04-10 21:21:00,57.0,54.0,29.88,North,0,0.0,-999.0,87,0.01,,,-99.99,,2013-04-11 01:21:00,
2013-04-10 21:31:00,57.0,54.0,29.86,East,100,8.0,-999.0,87,0.00,,,-99.99,,2013-04-11 01:31:00,
2013-04-10 21:41:00,57.0,54.0,29.84,ESE,120,8.0,-999.0,87,0.00,,,-99.99,,2013-04-11 01:41:00,
2013-04-10 21:51:00,57.0,54.0,29.83,East,100,7.0,-999.0,87,0.00,,,-99.99,,2013-04-11 01:51:00,
2013-04-10 22:01:00,57.0,54.0,29.83,East,100,7.0,-999.0,87,0.00,,,-99.99,,2013-04-11 02:01:00,
2013-04-10 22:11:00,57.0,54.0,29.81,ESE,110,7.0,-999.0,87,0.00,,,-99.99,,2013-04-11 02:11:00,
2013-04-10 22:21:00,57.0,54.0,29.94,WNW,300,30.0,36.0,87,0.00,,,-99.99,,2013-04-11 02:21:00,
2013-04-10 22:31:00,59.0,55.0,29.90,North,350,8.0,35.0,87,0.00,,,-99.99,,2013-04-11 02:31:00,
2013-04-10 22:41:00,59.0,55.0,29.90,North,350,8.0,35.0,87,0.00,,,-99.99,,2013-04-11 02:41:00,
2013-04-10 22:52:00,59.0,55.0,29.92,NNW,340,7.0,-999.0,87,0.11,,,-99.99,,2013-04-11 02:52:00,
2013-04-10 23:11:00,59.0,55.0,29.90,North,0,0.0,-999.0,87,0.18,,,-99.99,,2013-04-11 03:11:00,
2013-04-10 23:21:00,59.0,57.0,29.91,North,0,0.0,-999.0,93,0.18,,,-99.99,,2013-04-11 03:21:00,
2013-04-10 23:32:00,57.0,57.0,29.89,South,190,3.0,-999.0,100,0.04,,,-99.99,,2013-04-11 03:32:00,
2013-04-10 23:42:00,57.0,55.0,29.89,South,170,3.0,-999.0,93,0.04,,,-99.99,,2013-04-11 03:42:00,
2013-04-10 23:52:00,57.0,57.0,29.88,SSE,150,5.0,-999.0,100,0.09,,,-99.99,,2013-04-11 03:52:00,